메인 페이지
METAR-TAF:

METAR-TAF

공항 :

트라브존 공항

트라브존, 터키

위도: 41-00N, 경도: 039-43E, 고도: 35m

현재 날씨관측

예보는 42분 전, 14:20시(UTC)에 발표되었습니다.
4kt풍과 남동풍을 오가는
온도 20°C
습도 73%
기압 1023 hPa
시정 10km 이상
고도 3500ft 상공 구름 보통

METAR: LTCG 221420Z 10004KT 080V140 9999 SCT035 20/15 Q1023 NOSIG RMK RWY29 12004KT

시각: 18:02 (15:02 UTC)

예보

예보는 4 시간 22분 전, 10:40시(UTC)에 발표되었습니다.
예보 대상 시간: 22일 12시부터 23일 12시까지 (UTC)
여러 방향의 바람 2kt
시정 10km 이상
고도 1500ft 상공 구름 보통
확률 30% :
일시적
22일 15시부터 22일 19시까지 (UTC)
고도 1200ft 상공 구름 많음
확률 30% :
일시적
22일 19시부터 22일 23시까지 (UTC)
고도 900ft 상공 구름 많음
전환 중
23일 03시부터 23일 06시까지 (UTC)
시정 10km 이상
1500m 미만 상공 구름 및 적란운 없음

TAF: LTCG 221040Z 2212/2312 VRB02KT 9999 SCT015 PROB30 TEMPO 2215/2219 BKN012 PROB30 TEMPO 2219/2223 BKN009 BECMG 2303/2306 CAVOK

4,000개 이상의 공항 관측 자료 및 예보 (METAR 및 TAF 보고).

지도상에서 검색 가능한 기상관측소가 노란 점과 빨간 점으로 표시되어 있습니다.

기상관측소 명을 보려면 표시 위로 마우스를 이동하세요.

날씨 관측과 예보를 보려면 클릭하세요.

지도 변경 : 확대하려면 엑스 표시가 있는 녹색 버튼, 축소하려면 빼기 표시가 있는 녹색 버튼, 다음 페이지의 지도를 보려면 녹색 화살표를 클릭하세요.


METAR-TAF: